createdAt,value
2023-04-14T00:00:12.631Z,10.30
2023-04-14T00:02:14.671Z,10.30
2023-04-14T00:04:16.941Z,10.30
2023-04-14T00:06:19.024Z,10.30
2023-04-14T00:08:21.028Z,10.30
2023-04-14T00:10:22.941Z,10.30
2023-04-14T00:12:24.803Z,10.30
2023-04-14T00:14:26.667Z,10.30
2023-04-14T00:16:30.053Z,10.30
2023-04-14T00:18:31.933Z,10.30
2023-04-14T00:20:33.810Z,10.30
2023-04-14T00:22:35.724Z,10.20
2023-04-14T00:24:43.072Z,10.30
2023-04-14T00:26:44.942Z,10.30
2023-04-14T00:28:46.859Z,10.20
2023-04-14T00:30:48.723Z,10.20
2023-04-14T00:32:50.822Z,10.20
2023-04-14T00:34:52.748Z,10.20
2023-04-14T00:36:54.592Z,10.20
2023-04-14T00:38:56.421Z,10.20
2023-04-14T00:40:58.343Z,10.20
2023-04-14T00:43:00.321Z,10.20
2023-04-14T00:45:02.183Z,10.20
2023-04-14T00:47:04.249Z,10.30
2023-04-14T00:49:06.851Z,10.20
2023-04-14T00:51:08.971Z,10.20
2023-04-14T00:53:12.751Z,10.20
2023-04-14T00:55:16.499Z,10.20
2023-04-14T00:57:18.445Z,10.20
2023-04-14T00:59:20.604Z,10.20
2023-04-14T01:01:22.433Z,10.20
2023-04-14T01:03:27.618Z,10.20
2023-04-14T01:05:29.750Z,10.20
2023-04-14T01:07:31.646Z,10.20
2023-04-14T01:09:33.556Z,10.20
2023-04-14T01:12:12.942Z,10.20
2023-04-14T01:14:42.519Z,10.20
2023-04-14T01:16:49.631Z,10.20
2023-04-14T01:19:05.350Z,10.20
2023-04-14T01:21:13.352Z,10.20
2023-04-14T01:23:28.839Z,10.20
2023-04-14T01:26:10.033Z,10.20
2023-04-14T01:28:38.560Z,10.20
2023-04-14T01:30:55.734Z,10.20
2023-04-14T01:33:01.930Z,10.20
2023-04-14T01:35:20.793Z,10.20
2023-04-14T01:37:30.714Z,10.20
2023-04-14T01:39:38.005Z,10.10
2023-04-14T01:41:45.475Z,10.10
2023-04-14T01:43:51.738Z,10.10
2023-04-14T01:45:57.826Z,10.00
2023-04-14T01:48:00.483Z,10.00
2023-04-14T01:50:05.621Z,10.00
2023-04-14T01:52:10.682Z,9.90
2023-04-14T01:54:15.974Z,9.90
2023-04-14T01:56:19.072Z,9.90
2023-04-14T01:58:22.872Z,9.90
2023-04-14T02:00:25.587Z,9.80
2023-04-14T02:02:29.326Z,9.90
2023-04-14T02:04:32.293Z,9.80
2023-04-14T02:06:36.131Z,9.80
2023-04-14T02:08:41.269Z,9.80
2023-04-14T02:10:46.872Z,9.80
2023-04-14T02:12:52.862Z,9.80
2023-04-14T02:14:55.833Z,9.80
2023-04-14T02:16:59.354Z,9.80
2023-04-14T02:19:03.763Z,9.80
2023-04-14T02:21:05.971Z,9.80
2023-04-14T02:23:07.880Z,9.80
2023-04-14T02:25:10.362Z,9.80
2023-04-14T02:27:17.298Z,9.80
2023-04-14T02:29:23.103Z,9.80
2023-04-14T02:31:27.170Z,9.80
2023-04-14T02:33:33.764Z,9.80
2023-04-14T02:35:47.437Z,9.70
2023-04-14T02:37:53.946Z,9.70
2023-04-14T02:40:07.485Z,9.70
2023-04-14T02:42:15.600Z,9.70
2023-04-14T02:44:25.866Z,9.70
2023-04-14T02:46:29.461Z,9.70
2023-04-14T02:48:35.990Z,9.70
2023-04-14T02:50:40.741Z,9.70
2023-04-14T02:52:44.680Z,9.70
2023-04-14T02:54:49.136Z,9.70
2023-04-14T02:56:51.545Z,9.70
2023-04-14T02:58:54.555Z,9.70
2023-04-14T03:00:57.917Z,9.70
2023-04-14T03:03:01.392Z,9.70
2023-04-14T03:05:04.419Z,9.70
2023-04-14T03:07:07.534Z,9.70
2023-04-14T03:09:09.637Z,9.70
2023-04-14T03:11:12.249Z,9.70
2023-04-14T03:13:14.549Z,9.70
2023-04-14T03:15:17.530Z,9.70
2023-04-14T03:17:21.278Z,9.70
2023-04-14T03:19:26.550Z,9.70
2023-04-14T03:21:30.219Z,9.70
2023-04-14T03:23:33.635Z,9.70
2023-04-14T03:25:40.000Z,9.70
2023-04-14T03:27:44.445Z,9.70
2023-04-14T03:29:51.220Z,9.70
2023-04-14T03:31:56.442Z,9.70
2023-04-14T03:34:01.968Z,9.70
2023-04-14T03:36:04.769Z,9.70
2023-04-14T03:38:11.044Z,9.70
2023-04-14T03:40:15.560Z,9.70
2023-04-14T03:42:19.909Z,9.70
2023-04-14T03:44:22.575Z,9.70
2023-04-14T03:46:24.545Z,9.70
2023-04-14T03:48:30.155Z,9.70
2023-04-14T03:50:43.059Z,9.70
2023-04-14T03:52:49.885Z,9.70
2023-04-14T03:54:53.525Z,9.70
2023-04-14T03:56:58.271Z,9.70
2023-04-14T03:59:02.537Z,9.70
2023-04-14T04:01:04.794Z,9.80
2023-04-14T04:03:06.764Z,9.70
2023-04-14T04:05:10.922Z,9.80
2023-04-14T04:07:13.941Z,9.80
2023-04-14T04:09:18.136Z,9.70
2023-04-14T04:11:21.443Z,9.80
2023-04-14T04:13:25.354Z,9.70
2023-04-14T04:15:31.022Z,9.70
2023-04-14T04:17:33.207Z,9.80
2023-04-14T04:19:36.464Z,9.70
2023-04-14T04:21:41.745Z,9.80
2023-04-14T04:23:48.793Z,9.80
2023-04-14T04:25:51.939Z,9.80
2023-04-14T04:27:54.052Z,9.80
2023-04-14T04:29:56.166Z,9.80
2023-04-14T04:31:58.256Z,9.90
2023-04-14T04:34:00.188Z,9.80
2023-04-14T04:36:03.115Z,9.90
2023-04-14T04:38:05.883Z,9.90
2023-04-14T04:40:08.515Z,9.90
2023-04-14T04:42:10.704Z,9.90
2023-04-14T04:44:12.428Z,9.80
2023-04-14T04:46:23.312Z,9.90
2023-04-14T04:48:25.708Z,10.00
2023-04-14T04:50:27.535Z,9.90
2023-04-14T04:52:29.434Z,9.80
2023-04-14T04:54:31.267Z,9.90
2023-04-14T04:56:33.605Z,9.90
2023-04-14T04:58:35.726Z,9.90
2023-04-14T05:00:37.469Z,10.00
2023-04-14T05:02:39.335Z,9.90
2023-04-14T05:04:41.310Z,10.10
2023-04-14T05:06:43.303Z,10.10
2023-04-14T05:08:45.309Z,10.20
2023-04-14T05:10:47.357Z,10.10
2023-04-14T05:12:49.150Z,10.10
2023-04-14T05:14:51.615Z,10.10
2023-04-14T05:16:53.506Z,10.10
2023-04-14T05:18:55.553Z,10.20
2023-04-14T05:21:04.305Z,10.10
2023-04-14T05:23:06.738Z,10.00
2023-04-14T05:25:09.079Z,10.10
2023-04-14T05:27:14.538Z,10.10
2023-04-14T05:29:16.671Z,9.90
2023-04-14T05:31:18.720Z,9.90
2023-04-14T05:33:20.788Z,9.80
2023-04-14T05:35:24.726Z,9.70
2023-04-14T05:37:29.878Z,9.70
2023-04-14T05:39:31.854Z,9.70
2023-04-14T05:41:33.809Z,9.80
2023-04-14T05:43:35.790Z,9.70
2023-04-14T05:45:37.741Z,9.60
2023-04-14T05:47:39.867Z,9.60
2023-04-14T05:49:41.794Z,9.60
2023-04-14T05:51:43.645Z,9.60
2023-04-14T05:53:45.566Z,9.70
2023-04-14T05:55:51.133Z,9.70
2023-04-14T05:57:53.292Z,9.60
2023-04-14T05:59:58.074Z,9.70
2023-04-14T06:02:04.877Z,9.90
2023-04-14T06:04:07.471Z,9.80
2023-04-14T06:06:09.664Z,9.80
2023-04-14T06:08:11.583Z,9.90
2023-04-14T06:10:13.604Z,9.90
2023-04-14T06:12:15.813Z,10.00
2023-04-14T06:14:17.728Z,9.90
2023-04-14T06:16:19.658Z,9.90
2023-04-14T06:18:22.897Z,9.80
2023-04-14T06:20:25.716Z,9.70
2023-04-14T06:22:30.502Z,9.70
2023-04-14T06:24:35.347Z,9.80
2023-04-14T06:26:37.555Z,10.00
2023-04-14T06:28:40.572Z,10.00
2023-04-14T06:30:43.333Z,10.00
2023-04-14T06:32:45.648Z,10.00
2023-04-14T06:34:49.402Z,10.10
2023-04-14T06:36:53.110Z,10.20
2023-04-14T06:38:56.705Z,10.30
2023-04-14T06:40:58.800Z,10.40
2023-04-14T06:43:00.925Z,10.20
2023-04-14T06:45:02.903Z,10.10
2023-04-14T06:47:04.656Z,10.30
2023-04-14T06:49:07.517Z,10.40
2023-04-14T06:51:12.328Z,10.60
2023-04-14T06:53:14.424Z,10.60
2023-04-14T06:55:16.516Z,10.50
2023-04-14T06:57:18.427Z,10.60
2023-04-14T06:59:21.540Z,10.60
2023-04-14T07:01:23.899Z,10.70
2023-04-14T07:03:27.025Z,10.60
2023-04-14T07:05:28.924Z,10.60
2023-04-14T07:07:35.808Z,10.60
2023-04-14T07:09:37.714Z,10.90
2023-04-14T07:11:40.453Z,11.10
2023-04-14T07:13:42.368Z,11.40
2023-04-14T07:15:47.892Z,11.80
2023-04-14T07:17:49.980Z,11.50
2023-04-14T07:19:51.879Z,11.60
2023-04-14T07:21:53.727Z,11.40
2023-04-14T07:23:55.694Z,11.40
2023-04-14T07:25:59.352Z,12.00
2023-04-14T07:28:04.606Z,12.40
2023-04-14T07:30:07.127Z,12.70
2023-04-14T07:32:12.043Z,12.30
2023-04-14T07:34:14.231Z,12.20
2023-04-14T07:36:16.058Z,12.20
2023-04-14T07:38:18.193Z,12.50
2023-04-14T07:40:20.487Z,12.80
2023-04-14T07:42:22.363Z,12.50
2023-04-14T07:44:24.446Z,12.50
2023-04-14T07:46:26.434Z,12.30
2023-04-14T07:48:28.389Z,11.80
2023-04-14T07:50:30.315Z,12.00
2023-04-14T07:52:32.186Z,12.00
2023-04-14T07:54:34.068Z,11.90
2023-04-14T07:56:35.979Z,11.90
2023-04-14T07:58:38.096Z,12.30
2023-04-14T08:00:39.819Z,11.90
2023-04-14T08:02:41.863Z,11.60
2023-04-14T08:04:44.664Z,11.40
2023-04-14T08:06:46.857Z,11.50
2023-04-14T08:08:48.798Z,11.30
2023-04-14T08:10:51.065Z,11.30
2023-04-14T08:12:53.020Z,11.20
2023-04-14T08:14:57.119Z,11.40
2023-04-14T08:16:58.986Z,11.40
2023-04-14T08:19:01.615Z,11.10
2023-04-14T08:21:03.704Z,10.90
2023-04-14T08:23:05.818Z,10.70
2023-04-14T08:25:07.770Z,10.70
2023-04-14T08:27:09.636Z,10.80
2023-04-14T08:29:11.638Z,10.80
2023-04-14T08:31:13.524Z,10.90
2023-04-14T08:33:15.864Z,10.90
2023-04-14T08:35:38.578Z,11.00
2023-04-14T08:37:40.411Z,10.90
2023-04-14T08:39:42.250Z,10.70
2023-04-14T08:41:44.250Z,10.60
2023-04-14T08:43:46.384Z,10.60
2023-04-14T08:45:51.437Z,10.70
2023-04-14T08:47:55.136Z,10.90
2023-04-14T08:50:04.190Z,10.90
2023-04-14T08:52:09.949Z,11.10
2023-04-14T08:54:12.898Z,11.40
2023-04-14T08:56:18.123Z,11.10
2023-04-14T08:58:21.060Z,11.10
2023-04-14T09:00:23.477Z,11.00
2023-04-14T09:02:26.746Z,10.90
2023-04-14T09:04:29.770Z,10.80
2023-04-14T09:06:32.982Z,10.80
2023-04-14T09:08:36.028Z,10.70
2023-04-14T09:10:38.786Z,10.60
2023-04-14T09:12:42.087Z,10.40
2023-04-14T09:14:48.408Z,10.40
2023-04-14T09:16:53.899Z,10.50
2023-04-14T09:18:58.493Z,10.40
2023-04-14T09:21:32.991Z,10.40
2023-04-14T09:23:33.269Z,10.30
2023-04-14T09:25:35.149Z,10.40
2023-04-14T09:27:37.233Z,10.40
2023-04-14T09:29:39.079Z,10.40
2023-04-14T09:31:41.253Z,10.50
2023-04-14T09:33:48.638Z,10.40
2023-04-14T09:35:51.940Z,10.40
2023-04-14T09:37:53.779Z,10.30
2023-04-14T09:39:56.027Z,10.30
2023-04-14T09:41:58.649Z,10.30
2023-04-14T09:44:10.093Z,10.40
2023-04-14T09:46:12.268Z,10.50
2023-04-14T09:48:15.635Z,10.50
2023-04-14T09:50:17.503Z,10.50
2023-04-14T09:52:19.366Z,10.50
2023-04-14T09:54:27.745Z,10.50
2023-04-14T09:56:29.589Z,10.40
2023-04-14T09:58:36.494Z,10.70
2023-04-14T10:00:38.354Z,10.70
2023-04-14T10:03:01.657Z,10.70
2023-04-14T10:05:07.712Z,10.70
2023-04-14T10:07:11.220Z,11.00
2023-04-14T10:09:22.568Z,11.00
2023-04-14T10:11:29.694Z,11.00
2023-04-14T10:13:31.777Z,11.10
2023-04-14T10:15:34.623Z,11.30
2023-04-14T10:17:38.112Z,11.40
2023-04-14T10:19:40.094Z,11.40
2023-04-14T10:21:42.318Z,11.60
2023-04-14T10:23:45.046Z,12.00
2023-04-14T10:25:49.283Z,12.20
2023-04-14T10:27:51.734Z,12.10
2023-04-14T10:29:54.434Z,12.00
2023-04-14T10:32:05.553Z,11.80
2023-04-14T10:34:16.121Z,11.70
2023-04-14T10:36:29.291Z,11.40
2023-04-14T10:38:44.582Z,11.30
2023-04-14T10:40:47.808Z,10.90
2023-04-14T10:42:54.530Z,10.80
2023-04-14T10:45:06.810Z,10.70
2023-04-14T10:47:09.115Z,10.80
2023-04-14T10:49:15.521Z,10.80
2023-04-14T10:51:18.195Z,10.60
2023-04-14T10:53:20.164Z,10.60
2023-04-14T10:55:26.891Z,10.70
2023-04-14T10:57:29.798Z,10.80
2023-04-14T10:59:32.789Z,10.90
2023-04-14T11:01:36.528Z,10.90
2023-04-14T11:03:45.174Z,11.00
2023-04-14T11:05:51.855Z,11.30
2023-04-14T11:07:56.237Z,11.60
2023-04-14T11:10:21.320Z,11.60
2023-04-14T11:12:26.073Z,11.80
2023-04-14T11:14:30.789Z,11.60
2023-04-14T11:16:32.813Z,11.20
2023-04-14T11:18:35.710Z,11.40
2023-04-14T11:20:41.750Z,11.30
2023-04-14T11:22:48.469Z,11.40
2023-04-14T11:24:50.538Z,11.40
2023-04-14T11:26:53.529Z,11.40
2023-04-14T11:28:56.732Z,11.50
2023-04-14T11:31:00.140Z,11.50
2023-04-14T11:33:02.130Z,11.50
2023-04-14T11:35:08.975Z,11.40
2023-04-14T11:37:11.089Z,11.40
2023-04-14T11:39:15.653Z,11.50
2023-04-14T11:41:17.902Z,11.70
2023-04-14T11:43:22.874Z,12.00
2023-04-14T11:45:31.320Z,12.20
2023-04-14T11:47:33.229Z,12.30
2023-04-14T11:49:36.606Z,12.20
2023-04-14T11:51:38.932Z,12.10
2023-04-14T11:53:43.180Z,11.80
2023-04-14T11:55:50.048Z,11.80
2023-04-14T11:57:52.063Z,11.70
2023-04-14T11:59:56.703Z,11.70
2023-04-14T12:01:59.366Z,11.90
2023-04-14T12:04:01.550Z,11.90
2023-04-14T12:06:03.937Z,12.00
2023-04-14T12:08:08.764Z,11.90
2023-04-14T12:10:15.056Z,12.00
2023-04-14T12:12:18.481Z,11.90
2023-04-14T12:14:20.588Z,11.90
2023-04-14T12:16:23.409Z,11.70
2023-04-14T12:18:25.556Z,11.50
2023-04-14T12:20:27.837Z,11.50
2023-04-14T12:22:30.230Z,11.40
2023-04-14T12:24:35.742Z,11.40
2023-04-14T12:26:41.034Z,11.50
2023-04-14T12:28:45.043Z,11.30
2023-04-14T12:30:54.348Z,11.30
2023-04-14T12:32:56.986Z,11.20
2023-04-14T12:34:59.089Z,11.20
2023-04-14T12:37:10.157Z,11.00
2023-04-14T12:39:13.117Z,11.00
2023-04-14T12:41:24.464Z,11.00
2023-04-14T12:43:34.811Z,11.00
2023-04-14T12:45:44.398Z,10.90
2023-04-14T12:47:54.015Z,10.90
2023-04-14T12:49:57.085Z,10.90
2023-04-14T12:51:59.395Z,10.90
2023-04-14T12:54:06.745Z,10.80
2023-04-14T12:56:16.094Z,10.80
2023-04-14T12:58:18.034Z,10.90
2023-04-14T13:00:24.196Z,11.00
2023-04-14T13:02:28.890Z,11.10
2023-04-14T13:04:30.881Z,11.10
2023-04-14T13:06:32.796Z,11.10
2023-04-14T13:08:34.668Z,11.30
2023-04-14T13:10:36.607Z,11.50
2023-04-14T13:12:38.774Z,11.40
2023-04-14T13:14:40.617Z,11.30
2023-04-14T13:16:42.521Z,11.20
2023-04-14T13:18:45.068Z,11.20
2023-04-14T13:20:54.675Z,11.30
2023-04-14T13:22:56.640Z,11.30
2023-04-14T13:25:00.509Z,11.30
2023-04-14T13:27:03.101Z,11.30
2023-04-14T13:29:05.106Z,11.30
2023-04-14T13:31:07.395Z,11.40
2023-04-14T13:33:09.693Z,11.40
2023-04-14T13:35:11.885Z,11.40
2023-04-14T13:37:13.794Z,11.40
2023-04-14T13:39:15.978Z,11.30
2023-04-14T13:41:19.809Z,11.20
2023-04-14T13:43:23.239Z,10.90
2023-04-14T13:45:25.132Z,10.90
2023-04-14T13:47:27.141Z,10.80
2023-04-14T13:49:30.058Z,10.80
2023-04-14T13:51:33.368Z,10.80
2023-04-14T13:53:35.428Z,10.70
2023-04-14T13:55:37.301Z,10.60
2023-04-14T13:57:39.156Z,10.60
2023-04-14T13:59:41.235Z,10.60
2023-04-14T14:01:43.159Z,10.60
2023-04-14T14:03:45.647Z,10.60
2023-04-14T14:05:47.780Z,10.50
2023-04-14T14:07:49.674Z,10.50
2023-04-14T14:09:51.602Z,10.50
2023-04-14T14:11:53.513Z,10.50
2023-04-14T14:13:55.832Z,10.50
2023-04-14T14:15:58.197Z,10.50
2023-04-14T14:18:00.357Z,10.60
2023-04-14T14:20:03.275Z,10.50
2023-04-14T14:22:05.516Z,10.60
2023-04-14T14:24:07.450Z,10.60
2023-04-14T14:26:13.246Z,10.60
2023-04-14T14:28:15.125Z,10.60
2023-04-14T14:30:17.162Z,10.60
2023-04-14T14:32:19.038Z,10.60
2023-04-14T14:34:20.977Z,10.50
2023-04-14T14:36:23.672Z,10.40
2023-04-14T14:38:25.948Z,10.50
2023-04-14T14:40:29.030Z,10.40
2023-04-14T14:42:31.255Z,10.40
2023-04-14T14:44:33.231Z,10.40
2023-04-14T14:46:35.497Z,10.50
2023-04-14T14:48:37.435Z,10.40
2023-04-14T14:50:39.341Z,10.40
2023-04-14T14:52:41.219Z,10.40
2023-04-14T14:54:43.160Z,10.40
2023-04-14T14:56:45.015Z,10.40
2023-04-14T14:58:47.306Z,10.50
2023-04-14T15:00:49.587Z,10.50
2023-04-14T15:02:51.586Z,10.60
2023-04-14T15:04:53.824Z,10.50
2023-04-14T15:06:55.764Z,10.50
2023-04-14T15:08:57.608Z,10.40
2023-04-14T15:10:59.464Z,10.40
2023-04-14T15:13:01.395Z,10.30
2023-04-14T15:15:03.568Z,10.30
2023-04-14T15:17:05.457Z,10.20
2023-04-14T15:19:07.448Z,10.20
2023-04-14T15:21:09.405Z,10.10
2023-04-14T15:23:11.347Z,10.10
2023-04-14T15:25:16.482Z,10.00
2023-04-14T15:27:18.309Z,10.10
2023-04-14T15:29:20.315Z,10.00
2023-04-14T15:31:22.143Z,10.00
2023-04-14T15:33:24.054Z,10.00
2023-04-14T15:35:26.513Z,10.00
2023-04-14T15:37:28.464Z,10.00
2023-04-14T15:39:30.368Z,10.00
2023-04-14T15:41:32.206Z,10.00
2023-04-14T15:43:34.164Z,10.00
2023-04-14T15:45:36.064Z,10.00
2023-04-14T15:47:39.075Z,10.00
2023-04-14T15:49:41.018Z,10.00
2023-04-14T15:51:42.870Z,10.00
2023-04-14T15:53:44.722Z,10.00
2023-04-14T15:55:50.366Z,10.00
2023-04-14T15:57:52.210Z,10.00
2023-04-14T15:59:54.129Z,10.00
2023-04-14T16:01:56.259Z,10.00
2023-04-14T16:03:58.281Z,10.00
2023-04-14T16:06:04.531Z,10.00
2023-04-14T16:08:06.479Z,10.00
2023-04-14T16:10:08.607Z,10.00
2023-04-14T16:12:10.798Z,10.00
2023-04-14T16:14:13.349Z,10.00
2023-04-14T16:16:16.376Z,10.00
2023-04-14T16:21:59.261Z,10.00
2023-04-14T16:24:01.187Z,10.00
2023-04-14T16:26:03.250Z,10.00
2023-04-14T16:28:05.127Z,10.00
2023-04-14T16:30:07.890Z,9.90
2023-04-14T16:32:09.779Z,9.70
2023-04-14T16:34:12.042Z,9.70
2023-04-14T16:36:14.380Z,9.60
2023-04-14T16:38:16.281Z,9.60
2023-04-14T16:40:18.778Z,9.50
2023-04-14T16:42:24.802Z,9.50
2023-04-14T16:44:26.671Z,9.50
2023-04-14T16:46:28.590Z,9.50
2023-04-14T16:48:31.264Z,9.40
2023-04-14T16:50:37.081Z,9.40
2023-04-14T16:52:39.546Z,9.30
2023-04-14T16:54:42.864Z,9.30
2023-04-14T16:56:45.496Z,9.40
2023-04-14T16:58:47.482Z,9.30
2023-04-14T17:00:50.119Z,9.30
2023-04-14T17:02:52.194Z,9.10
2023-04-14T17:04:57.582Z,9.00
2023-04-14T17:06:59.470Z,9.00
2023-04-14T17:09:01.599Z,9.00
2023-04-14T17:11:03.609Z,8.90
2023-04-14T17:13:05.490Z,8.80
2023-04-14T17:15:07.861Z,8.70
2023-04-14T17:17:09.737Z,8.60
2023-04-14T17:19:11.696Z,8.70
2023-04-14T17:21:13.714Z,8.60
2023-04-14T17:23:16.266Z,8.60
2023-04-14T17:25:19.936Z,8.60
2023-04-14T17:27:22.361Z,8.60
2023-04-14T17:29:24.378Z,8.50
2023-04-14T17:31:26.579Z,8.40
2023-04-14T17:33:29.203Z,8.40
2023-04-14T17:35:32.231Z,8.50
2023-04-14T17:37:35.229Z,8.50
2023-04-14T17:39:37.696Z,8.40
2023-04-14T17:41:39.921Z,8.50
2023-04-14T17:43:41.904Z,8.50
2023-04-14T17:45:46.158Z,8.50
2023-04-14T17:47:48.138Z,8.50
2023-04-14T17:49:54.420Z,8.60
2023-04-14T17:51:57.158Z,8.40
2023-04-14T17:53:59.631Z,8.40
2023-04-14T17:56:02.509Z,8.50
2023-04-14T17:58:05.180Z,8.40
2023-04-14T18:00:14.709Z,8.50
2023-04-14T18:02:16.874Z,8.50
2023-04-14T18:04:18.861Z,8.50
2023-04-14T18:06:24.033Z,8.50
2023-04-14T18:08:25.956Z,8.40
2023-04-14T18:10:28.078Z,8.50
2023-04-14T18:12:33.376Z,8.40
2023-04-14T18:14:35.270Z,8.50
2023-04-14T18:16:37.505Z,8.50
2023-04-14T18:18:39.448Z,8.40
2023-04-14T18:20:54.658Z,8.40
2023-04-14T18:23:02.013Z,8.30
2023-04-14T18:25:04.694Z,8.30
2023-04-14T18:29:15.029Z,8.30
2023-04-14T18:31:16.922Z,8.30
2023-04-14T18:33:22.685Z,8.30
2023-04-14T18:35:25.204Z,8.30
2023-04-14T18:37:27.801Z,8.30
2023-04-14T18:39:34.255Z,8.40
2023-04-14T18:41:36.184Z,8.40
2023-04-14T18:43:38.545Z,8.30
2023-04-14T18:45:43.991Z,8.30
2023-04-14T18:47:46.083Z,8.30
2023-04-14T18:49:48.033Z,8.30
2023-04-14T18:51:50.119Z,8.30
2023-04-14T18:53:51.934Z,8.40
2023-04-14T18:55:53.872Z,8.30
2023-04-14T18:57:56.070Z,8.40
2023-04-14T18:59:58.416Z,8.40
2023-04-14T19:02:00.665Z,8.40
2023-04-14T19:04:03.078Z,8.40
2023-04-14T19:06:05.419Z,8.50
2023-04-14T19:08:07.535Z,8.50
2023-04-14T19:10:10.273Z,8.50
2023-04-14T19:12:21.676Z,8.50
2023-04-14T19:14:30.667Z,8.50
2023-04-14T19:16:33.038Z,8.50
2023-04-14T19:18:35.639Z,8.50
2023-04-14T19:20:38.554Z,8.50
2023-04-14T19:22:40.517Z,8.50
2023-04-14T19:24:42.765Z,8.50
2023-04-14T19:26:45.166Z,8.40
2023-04-14T19:28:47.176Z,8.40
2023-04-14T19:30:49.240Z,8.40
2023-04-14T19:32:51.008Z,8.40
2023-04-14T19:34:52.978Z,8.40
2023-04-14T19:36:54.910Z,8.40
2023-04-14T19:38:57.189Z,8.40
2023-04-14T19:40:59.005Z,8.40
2023-04-14T19:43:01.143Z,8.40
2023-04-14T19:45:03.224Z,8.40
2023-04-14T19:47:05.165Z,8.50
2023-04-14T19:49:08.248Z,8.50
2023-04-14T19:51:11.307Z,8.50
2023-04-14T19:53:13.775Z,8.50
2023-04-14T19:55:16.139Z,8.50
2023-04-14T19:57:18.086Z,8.40
2023-04-14T19:59:20.834Z,8.40
2023-04-14T20:01:24.296Z,8.50
2023-04-14T20:03:27.263Z,8.50
2023-04-14T20:05:29.309Z,8.50
2023-04-14T20:07:31.910Z,8.50
2023-04-14T20:09:34.744Z,8.40
2023-04-14T20:11:37.214Z,8.50
2023-04-14T20:13:39.772Z,8.40
2023-04-14T20:15:42.267Z,8.50
2023-04-14T20:17:44.243Z,8.40
2023-04-14T20:19:46.141Z,8.50
2023-04-14T20:21:48.425Z,8.40
2023-04-14T20:23:51.003Z,8.30
2023-04-14T20:25:53.270Z,8.30
2023-04-14T20:27:55.137Z,8.20
2023-04-14T20:29:58.027Z,8.20
2023-04-14T20:32:00.666Z,8.30
2023-04-14T20:34:04.173Z,8.20
2023-04-14T20:36:06.738Z,8.20
2023-04-14T20:38:08.772Z,8.10
2023-04-14T20:40:10.651Z,8.10
2023-04-14T20:42:19.912Z,8.10
2023-04-14T20:44:22.326Z,8.00
2023-04-14T20:46:24.540Z,8.00
2023-04-14T20:48:26.922Z,8.00
2023-04-14T20:50:28.866Z,8.00
2023-04-14T20:52:32.022Z,8.00
2023-04-14T20:54:34.213Z,8.00
2023-04-14T20:56:36.156Z,8.00
2023-04-14T20:58:38.392Z,8.00
2023-04-14T21:00:41.002Z,8.00
2023-04-14T21:02:44.428Z,8.00
2023-04-14T21:04:46.497Z,8.00
2023-04-14T21:06:49.174Z,8.00
2023-04-14T21:08:51.113Z,8.00
2023-04-14T21:11:15.215Z,8.00
2023-04-14T21:15:29.358Z,8.00
2023-04-14T21:15:53.062Z,8.00
2023-04-14T21:17:59.416Z,8.00
2023-04-14T21:20:02.975Z,8.10
2023-04-14T21:22:07.124Z,8.00
2023-04-14T21:24:08.993Z,8.10
2023-04-14T21:26:13.288Z,8.00
2023-04-14T21:28:15.830Z,8.00
2023-04-14T21:30:17.692Z,8.00
2023-04-14T21:32:19.551Z,8.00
2023-04-14T21:34:21.512Z,8.00
2023-04-14T21:36:24.516Z,8.10
2023-04-14T21:38:26.480Z,8.10
2023-04-14T21:40:28.916Z,8.10
2023-04-14T21:42:30.813Z,8.00
2023-04-14T21:44:32.640Z,8.10
2023-04-14T21:46:34.596Z,8.00
2023-04-14T21:48:37.538Z,8.00
2023-04-14T21:50:39.772Z,8.00
2023-04-14T21:52:41.683Z,7.90
2023-04-14T21:54:44.369Z,8.00
2023-04-14T21:56:46.468Z,8.00
2023-04-14T21:58:48.396Z,7.90
2023-04-14T22:00:50.878Z,7.90
2023-04-14T22:02:52.871Z,7.90
2023-04-14T22:04:54.806Z,7.90
2023-04-14T22:06:57.468Z,7.90
2023-04-14T22:08:59.998Z,7.90
2023-04-14T22:11:02.137Z,7.90
2023-04-14T22:13:04.010Z,7.80
2023-04-14T22:15:10.529Z,7.90
2023-04-14T22:17:12.543Z,7.80
2023-04-14T22:19:14.629Z,7.80
2023-04-14T22:21:16.619Z,7.90
2023-04-14T22:23:18.493Z,7.80
2023-04-14T22:25:20.521Z,7.80
2023-04-14T22:27:22.240Z,7.80
2023-04-14T22:29:24.149Z,7.70
2023-04-14T22:31:27.809Z,7.80
2023-04-14T22:33:29.872Z,7.80
2023-04-14T22:35:31.804Z,7.70
2023-04-14T22:37:33.667Z,7.70
2023-04-14T22:39:35.855Z,7.70
2023-04-14T22:41:37.805Z,7.70
2023-04-14T22:43:39.651Z,7.70
2023-04-14T22:45:42.067Z,7.70
2023-04-14T22:47:44.065Z,7.80
2023-04-14T22:49:46.280Z,7.80
2023-04-14T22:51:48.108Z,7.70
2023-04-14T22:53:50.026Z,7.60
2023-04-14T22:55:52.003Z,7.70
2023-04-14T22:57:53.906Z,7.60
2023-04-14T22:59:55.994Z,7.70
2023-04-14T23:01:57.848Z,7.60
2023-04-14T23:03:59.838Z,7.60
2023-04-14T23:06:03.139Z,7.60
2023-04-14T23:08:06.762Z,7.60
2023-04-14T23:10:09.983Z,7.70
2023-04-14T23:12:12.109Z,7.50
2023-04-14T23:14:13.836Z,7.50
2023-04-14T23:16:20.010Z,7.50
2023-04-14T23:18:22.634Z,7.50
2023-04-14T23:20:24.856Z,7.50
2023-04-14T23:22:28.396Z,7.50
2023-04-14T23:24:30.262Z,7.50
2023-04-14T23:26:32.146Z,7.40
2023-04-14T23:28:33.975Z,7.40
2023-04-14T23:30:35.913Z,7.40
2023-04-14T23:32:37.830Z,7.40
2023-04-14T23:34:39.934Z,7.30
2023-04-14T23:36:41.817Z,7.40
2023-04-14T23:38:43.786Z,7.40
2023-04-14T23:40:45.677Z,7.40
2023-04-14T23:42:47.550Z,7.40
2023-04-14T23:44:49.418Z,7.40
2023-04-14T23:46:51.845Z,7.40
2023-04-14T23:48:54.198Z,7.30
2023-04-14T23:51:01.192Z,7.30
2023-04-14T23:53:17.324Z,7.40
2023-04-14T23:55:19.343Z,7.40
2023-04-14T23:57:21.571Z,7.50
2023-04-14T23:59:23.569Z,7.40
